Amityville, NY

11:43 AM EST on December 10, 2016 (GMT -0500)
Amityville | | Change Station

Elev 43 ft 40.69 °N, 73.42 °W | Updated 18 seconds ago

Partly Cloudy
Partly Cloudy
34.5 °F
Feels Like 34 °F
N
2.5
Wind Variable Wind from WNW
Gusts 4.9 mph

Today
High -- | Low -- °F
--% Chance of Precip.
Yesterday
High -- | Low -- °F
Precip. -- in
Pressure 30.38 in
Visibility 10.0 miles
Clouds Few 4100 ft
Windchill 34 °F
Dew Point 19 °F
Humidity 52%
Rainfall 0.00 in
Snow Depth Not available.
7:07 AM 4:26 PM
Waxing Gibbous, 84% visible
METAR KFRG 101553Z 32011KT 10SM FEW041 01/M09 A3038 RMK AO2 SLP286 T00061089
Pressure 30.38 in
Visibility 10.0 miles
Clouds Few 4100 ft
Windchill 34 °F
Dew Point 19 °F
Humidity 52%
Rainfall 0.00 in
Snow Depth Not available.
7:07 AM 4:26 PM
Waxing Gibbous, 84% visible
METAR KFRG 101553Z 32011KT 10SM FEW041 01/M09 A3038 RMK AO2 SLP286 T00061089

10-Day Weather Forecast

Almanac

Astronomy

Dec. 10, 2016 Rise Set
Actual Time
Civil Twilight
Nautical Twilight
Astronomical Twilight
Moon
Length of Visible Light
Length of Day
Tomorrow will be .
, % of the Moon is Illuminated

Today's Extremes

State Highs State Lows

Community

WunderPhotos

Upload Photos

1,956,569 photos uploaded!

WunderBlog® & News

Nearby

Air Quality

  Air Quality AQ Index Pollutant
Not available.

Snow Depth

Station Depth Elevation

Earthquake Activity

City Distance Mag. Time & Date
Minimum magnitude displayed is 2.5.

Coastal Water Temperatures

Place Temperature

Stations

Nearby Weather Stations

Station Location Temp. Windchill Dew Point Humidity Wind Precip. Elev Updated Type
                   

Watches & Warnings

There are currently no watches in effect.